Gainesville Regional Airport
KGNV : now visible

Airfield :











YOU CAN JOIN US ON...

 
LOGIN :

Register | Disclaimer

   EN    FR    IT 

 









Legend :    VFR   Marginal VFR   IFR   Intensive IFR   Very Intensive IFR
Visi :
Ceiling :
>= 8 km
>= 3000ft
5 to 8 km
1000 to 3000 ft
1500m to 5 km
500 to 1000 ft
800 to 1500m
200 to 500 ft
< 800m
< 200 ft
Symbols :   Thunderstorms  Fog  Heavy snow  Heavy precipitations  Wind > 20 kt






- Airport Elevation : 152 ft
- IATA code : GNV


KGNV - Gainesville Regional

CURRENT METAR :
  • 110653Z AUTO 11004KT 10SM CLR 23/23 A3005 RMK AO2 SLP173 T02330228

EXPIRED METARs :
  • 110553Z AUTO 00000KT 10SM CLR 23/23 A3007 RMK AO2 RAE05 SLP178 P0000 60000 T02330228 10289 20233 58002
  • 110453Z AUTO 04004KT 10SM -RA FEW110 24/23 A3008 RMK AO2 RAB47 SLP183 P0000 T02390228 403500211

TAF KGNV
Valid from the 11 at 06:00 until the 12 at 06:00 UTC


110527Z 1106/1206 VRB04KT P6SM VCSH FEW050 SCT200
FM110700 VRB03KT P6SM FEW110 SCT250
FM111600 29005KT P6SM VCSH SCT035 BKN200
FM111800 VRB03KT P6SM VCTS SCT030CB BKN200
PROB30 1119/1123 VRB15G25KT 3SM TSRA BKN030CB BKN045
FM120000 00000KT P6SM VCSH SCT040 OVC200
FM120400 00000KT P6SM SCT045 BKN200
KZJX FIR / North America



MET'MAP, your aeronautical weather chart ! - Copyright ORBIFLY December 2007 - Disclaimer

ORBIFLY MET'MAP TEAM :

Programming & Development : Alexandra Zaïnal
Concept & original design : Baudouin d'Aumeries
Assistance for programming : Marc-Olivier Méhu
Technical & hardware support : Manuel Goepfert

Contact : metmap@orbifly.com




SOURCES & CREDITS :

   NOAA       Earth
Advisory